Time;durP1;ratioP1;P1;durP2;ratioP2;P2;SDS_P1;SDS_P2;PMS_P1;PMS_P2;Temp;Humidity;BMP_temperature;BMP_pressure;BME280_temperature;BME280_humidity;BME280_pressure;Samples;Min_cycle;Max_cycle;Signal;HPM_P1;HPM_P2
2023/01/28 00:01:13;;;;;;;13.13;9.33;;;;;;;-145.18;100.00;46660.41;6245520;22;20579;-75
2023/01/28 00:03:40;;;;;;;13.33;9.43;;;;;;;-145.18;100.00;46660.41;6274126;22;20251;-75
2023/01/28 00:06:08;;;;;;;13.80;9.37;;;;;;;-145.18;100.00;46660.41;6273766;22;20773;-75
2023/01/28 00:08:34;;;;;;;14.97;10.37;;;;;;;-145.18;100.00;46660.41;6246921;22;20260;-75
2023/01/28 00:11:01;;;;;;;25.90;9.67;;;;;;;-145.18;100.00;46660.41;6273415;22;20241;-75
2023/01/28 00:13:27;;;;;;;15.27;9.63;;;;;;;-145.18;100.00;46676.03;6274010;22;20004;-75
2023/01/28 00:15:57;;;;;;;18.03;10.30;;;;;;;-145.18;100.00;46660.41;6273563;22;20686;-75
2023/01/28 00:18:24;;;;;;;15.60;10.00;;;;;;;-145.18;100.00;46660.41;6274166;22;20237;-75
2023/01/28 00:21:02;;;;;;;15.90;10.63;;;;;;;-145.18;100.00;46636.94;6273883;22;20239;-75
2023/01/28 00:23:30;;;;;;;14.67;10.03;;;;;;;-145.18;100.00;46660.41;6273524;22;20229;-75
2023/01/28 00:26:05;;;;;;;14.30;10.43;;;;;;;-145.18;100.00;46660.41;6273592;22;20221;-75
2023/01/28 00:28:30;;;;;;;16.92;10.23;;;;;;;-145.18;100.00;46660.41;6273769;22;20232;-75
2023/01/28 00:30:56;;;;;;;15.57;10.20;;;;;;;-145.18;100.00;46660.41;6273659;22;20000;-75
2023/01/28 00:33:22;;;;;;;14.43;9.97;;;;;;;-145.18;100.00;46638.91;6273780;22;20018;-75
2023/01/28 00:35:56;;;;;;;14.90;10.33;;;;;;;-145.18;100.00;46638.91;6273781;22;20011;-75
2023/01/28 00:38:22;;;;;;;15.87;10.47;;;;;;;-145.18;100.00;46640.88;6273755;22;20282;-75
2023/01/28 00:40:47;;;;;;;16.30;10.80;;;;;;;-145.18;100.00;46660.41;6273627;22;20228;-75
2023/01/28 00:43:12;;;;;;;14.47;10.00;;;;;;;-145.18;100.00;46660.41;6273513;22;20008;-75
2023/01/28 00:45:38;;;;;;;15.10;9.53;;;;;;;-145.18;100.00;46636.94;6273881;22;20007;-75
2023/01/28 00:48:03;;;;;;;14.07;9.20;;;;;;;-145.18;100.00;46642.81;6272800;22;20490;-75
2023/01/28 00:50:29;;;;;;;12.67;8.60;;;;;;;-145.18;100.00;46642.81;6273773;22;20439;-75
2023/01/28 00:52:54;;;;;;;17.20;10.77;;;;;;;-145.18;100.00;46652.59;6273316;22;20095;-75
2023/01/28 00:55:20;;;;;;;13.93;9.27;;;;;;;-145.18;100.00;46664.31;6273813;22;20026;-75
2023/01/28 00:57:45;;;;;;;13.33;9.50;;;;;;;-145.18;100.00;46662.34;6273449;22;20089;-75
2023/01/28 01:00:11;;;;;;;12.50;8.60;;;;;;;-145.18;100.00;46668.22;6273622;22;20086;-75
2023/01/28 01:02:36;;;;;;;14.13;9.23;;;;;;;-145.18;100.00;46670.16;6246089;22;20433;-75
2023/01/28 01:05:02;;;;;;;13.67;9.13;;;;;;;-145.18;100.00;46679.94;6273371;22;20022;-75
2023/01/28 01:07:42;;;;;;;14.53;9.30;;;;;;;-145.18;100.00;46677.97;6273586;22;20030;-75
2023/01/28 01:10:13;;;;;;;13.80;8.57;;;;;;;-145.18;100.00;46679.94;6245939;22;20590;-75
2023/01/28 01:12:39;;;;;;;15.03;8.77;;;;;;;-145.18;100.00;46676.03;6273358;22;20232;-75
2023/01/28 01:15:09;;;;;;;15.63;9.37;;;;;;;-145.18;100.00;46679.94;6273409;22;20566;-75
2023/01/28 01:17:39;;;;;;;13.73;9.10;;;;;;;-145.18;100.00;46679.94;6273923;22;20038;-75
2023/01/28 01:20:07;;;;;;;13.77;8.97;;;;;;;-145.18;100.00;46676.03;6273171;22;20225;-75
2023/01/28 01:22:35;;;;;;;15.63;9.40;;;;;;;-145.18;100.00;46672.13;6272932;22;20248;-75
2023/01/28 01:25:00;;;;;;;13.87;8.70;;;;;;;-145.18;100.00;46672.13;6273606;22;20550;-75
2023/01/28 01:27:26;;;;;;;16.80;9.33;;;;;;;-145.18;100.00;46672.13;6273490;22;20236;-75
2023/01/28 01:29:51;;;;;;;12.40;8.47;;;;;;;-145.18;100.00;46674.06;6273391;22;20107;-75
2023/01/28 01:32:17;;;;;;;14.00;9.30;;;;;;;-145.18;100.00;46672.13;6273424;22;20018;-75
2023/01/28 01:34:43;;;;;;;11.63;7.80;;;;;;;-145.18;100.00;46677.97;6246364;22;20097;-75
2023/01/28 01:37:09;;;;;;;15.63;9.50;;;;;;;-145.18;100.00;46670.16;6272948;22;20255;-76
2023/01/28 01:39:35;;;;;;;14.07;8.97;;;;;;;-145.18;100.00;46668.22;6272981;22;20004;-75
2023/01/28 01:42:01;;;;;;;13.97;8.80;;;;;;;-145.18;100.00;46674.06;6273070;22;20717;-75
2023/01/28 01:44:54;;;;;;;13.60;9.00;;;;;;;-145.18;100.00;46672.13;6246293;22;20237;-75
2023/01/28 01:47:26;;;;;;;12.83;8.67;;;;;;;-145.18;100.00;46672.13;6273523;22;20061;-75
2023/01/28 01:49:52;;;;;;;12.47;8.60;;;;;;;-145.18;100.00;46674.06;6272990;22;20225;-75
2023/01/28 01:52:24;;;;;;;12.87;8.27;;;;;;;-145.18;100.00;46679.94;6246016;22;20540;-75
2023/01/28 01:54:55;;;;;;;17.40;9.33;;;;;;;-145.18;100.00;46677.97;6273232;22;20233;-75
2023/01/28 01:57:29;;;;;;;12.43;8.00;;;;;;;-145.18;100.00;46677.97;6273227;22;20765;-75
2023/01/28 02:00:03;;;;;;;13.87;8.47;;;;;;;-145.18;100.00;46679.94;6273568;22;20229;-75
2023/01/28 02:02:29;;;;;;;13.97;8.90;;;;;;;-145.18;100.00;46676.03;6272563;22;20684;-75
2023/01/28 02:04:54;;;;;;;14.37;8.87;;;;;;;-145.18;100.00;46685.78;6273083;22;20311;-75
2023/01/28 02:07:20;;;;;;;15.20;8.23;;;;;;;-145.18;100.00;46693.59;6273108;22;20345;-74
2023/01/28 02:09:45;;;;;;;13.13;8.63;;;;;;;-145.18;100.00;46685.78;6273121;22;20031;-75
2023/01/28 02:12:15;;;;;;;15.00;9.20;;;;;;;-145.18;100.00;46693.59;6272910;22;20008;-75
2023/01/28 02:14:50;;;;;;;14.43;8.53;;;;;;;-145.18;100.00;46697.50;6272975;22;20374;-75
2023/01/28 02:17:15;;;;;;;13.00;8.70;;;;;;;-145.18;100.00;46699.47;6273121;22;20228;-75
2023/01/28 02:19:59;;;;;;;12.17;7.80;;;;;;;-145.18;100.00;46707.28;6273539;22;20241;-75
2023/01/28 02:22:37;;;;;;;12.97;8.77;;;;;;;-145.18;100.00;46703.38;6272730;22;20003;-75
2023/01/28 02:25:32;;;;;;;13.43;9.30;;;;;;;-145.18;100.00;46707.28;6245405;22;20569;-75
2023/01/28 02:28:23;;;;;;;16.17;9.03;;;;;;;-145.18;100.00;46705.31;6272798;22;20685;-75
2023/01/28 02:30:57;;;;;;;17.63;9.13;;;;;;;-145.18;100.00;46711.19;6273329;22;20213;-75
2023/01/28 02:33:34;;;;;;;13.23;8.50;;;;;;;-145.18;100.00;46701.41;6272913;22;20229;-75
2023/01/28 02:36:10;;;;;;;15.87;8.83;;;;;;;-145.18;100.00;46697.50;6272457;22;20562;-75
2023/01/28 02:38:41;;;;;;;15.57;9.33;;;;;;;-145.18;100.00;46697.50;6272732;22;20678;-74
2023/01/28 02:41:20;;;;;;;14.07;9.00;;;;;;;-145.18;100.00;46689.69;6272744;22;20391;-74
2023/01/28 02:43:46;;;;;;;14.83;9.77;;;;;;;-145.18;100.00;46705.31;6272896;22;20300;-74
2023/01/28 02:49:27;;;;;;;15.30;9.77;;;;;;;-145.18;100.00;46697.50;6273065;22;20240;-75
2023/01/28 02:52:05;;;;;;;15.87;10.13;;;;;;;-145.18;100.00;46695.56;6274069;22;20000;-75
2023/01/28 02:54:36;;;;;;;13.70;9.00;;;;;;;-145.18;100.00;46705.31;6274904;22;20597;-74
2023/01/28 02:57:11;;;;;;;14.57;9.60;;;;;;;-145.18;100.00;46697.50;6274235;22;20237;-75
2023/01/28 03:00:04;;;;;;;14.97;9.50;;;;;;;-145.18;100.00;46693.59;6274972;22;20292;-74
2023/01/28 03:02:43;;;;;;;15.10;9.70;;;;;;;-145.18;100.00;46695.56;6257984;22;20324;-76
2023/01/28 03:05:25;;;;;;;13.13;8.73;;;;;;;-145.18;100.00;46687.75;6274301;22;20242;-77
2023/01/28 03:07:51;;;;;;;14.70;9.33;;;;;;;-145.18;100.00;46681.88;6274225;22;20232;-77
2023/01/28 03:10:22;;;;;;;12.87;8.80;;;;;;;-145.18;100.00;46687.75;6247608;22;20244;-77
2023/01/28 03:38:21;;;;;;;12.20;7.90;;;;;;;-145.18;100.00;46783.47;6274233;22;20015;-77
2023/01/28 03:41:00;;;;;;;12.20;8.17;;;;;;;-145.18;100.00;46785.41;6274249;22;20131;-77
2023/01/28 03:43:25;;;;;;;12.80;8.23;;;;;;;-145.18;100.00;46789.31;6274289;22;20305;-77
2023/01/28 03:45:51;;;;;;;12.10;8.40;;;;;;;-145.18;100.00;46787.38;6274316;22;20264;-76
2023/01/28 03:48:22;;;;;;;13.97;8.60;;;;;;;-145.18;100.00;46785.41;6274085;22;20057;-77
2023/01/28 03:50:48;;;;;;;14.03;8.37;;;;;;;-145.18;100.00;46775.66;6273679;22;20314;-77
2023/01/28 03:53:15;;;;;;;11.77;7.67;;;;;;;-145.18;100.00;46773.69;6274175;22;20275;-77
2023/01/28 03:55:41;;;;;;;13.43;8.60;;;;;;;-145.18;100.00;46781.50;6274066;22;20007;-77
2023/01/28 03:58:07;;;;;;;14.80;7.97;;;;;;;-145.18;100.00;46787.38;6273783;22;20236;-76
2023/01/28 04:00:36;;;;;;;14.60;9.47;;;;;;;-145.18;100.00;46803.00;6274098;22;20229;-77
2023/01/28 04:03:15;;;;;;;14.43;9.00;;;;;;;-145.18;100.00;46818.63;6273462;22;20256;-77
2023/01/28 04:05:45;;;;;;;19.60;9.07;;;;;;;-145.18;100.00;46824.47;6273966;22;20229;-77
2023/01/28 04:08:10;;;;;;;14.10;8.77;;;;;;;-145.18;100.00;46847.91;6274150;22;20268;-76
2023/01/28 04:10:38;;;;;;;12.70;8.30;;;;;;;-145.18;100.00;46879.19;6273946;22;20678;-77
2023/01/28 04:13:04;;;;;;;13.30;8.00;;;;;;;-145.18;100.00;46857.69;6273959;22;19999;-77
2023/01/28 04:15:29;;;;;;;13.63;8.47;;;;;;;-145.18;100.00;46830.34;6273971;22;20283;-76
2023/01/28 04:17:55;;;;;;;12.60;7.97;;;;;;;-145.18;100.00;46836.19;6273850;22;20011;-77
2023/01/28 04:20:21;;;;;;;15.93;10.07;;;;;;;-145.18;100.00;46853.78;6274168;22;20015;-77
2023/01/28 04:22:46;;;;;;;16.07;10.33;;;;;;;-145.18;100.00;46863.53;6273428;22;20087;-77
2023/01/28 04:25:12;;;;;;;17.17;10.83;;;;;;;-145.18;100.00;46867.44;6247004;22;20255;-77
2023/01/28 04:27:37;;;;;;;16.07;10.40;;;;;;;-145.18;100.00;46871.38;6273517;22;20071;-76
2023/01/28 04:30:03;;;;;;;15.53;9.83;;;;;;;-145.18;100.00;46875.28;6273696;22;20031;-76
2023/01/28 04:32:28;;;;;;;17.50;10.03;;;;;;;-145.18;100.00;46906.53;6273615;22;20019;-77
2023/01/28 04:34:54;;;;;;;15.80;10.07;;;;;;;-145.18;100.00;46894.81;6246553;22;20015;-77
2023/01/28 04:37:19;;;;;;;17.97;10.17;;;;;;;-145.18;100.00;46912.38;6273733;22;20627;-77
2023/01/28 04:39:44;;;;;;;12.37;7.83;;;;;;;-145.18;100.00;46887.00;6273858;22;20007;-76
2023/01/28 04:42:10;;;;;;;12.40;8.30;;;;;;;-145.18;100.00;46906.53;6273502;22;20039;-76
2023/01/28 04:44:35;;;;;;;12.70;8.40;;;;;;;-145.18;100.00;46912.38;6273477;22;20039;-76
2023/01/28 04:47:00;;;;;;;15.17;8.83;;;;;;;-145.18;100.00;46918.25;6246371;22;20026;-77
2023/01/28 04:49:26;;;;;;;14.33;8.50;;;;;;;-145.18;100.00;46900.66;6273635;22;20007;-76
2023/01/28 04:51:51;;;;;;;18.03;8.43;;;;;;;-145.18;100.00;46877.22;6273344;22;20012;-77
2023/01/28 04:54:16;;;;;;;11.83;7.97;;;;;;;-145.18;100.00;46875.28;6246582;22;20008;-77
2023/01/28 04:56:42;;;;;;;13.03;8.07;;;;;;;-145.18;100.00;46871.38;6273509;22;20090;-77
2023/01/28 04:59:07;;;;;;;14.27;8.60;;;;;;;-145.18;100.00;46861.59;6246079;22;20008;-77
2023/01/28 05:01:33;;;;;;;12.90;8.87;;;;;;;-145.18;100.00;46885.03;6273183;22;20008;-77
2023/01/28 05:03:58;;;;;;;17.57;9.33;;;;;;;-145.18;100.00;46879.19;6273483;22;20065;-77
2023/01/28 05:06:24;;;;;;;14.87;8.57;;;;;;;-145.18;100.00;46875.28;6273690;22;20012;-77
2023/01/28 05:08:49;;;;;;;14.00;9.20;;;;;;;-145.18;100.00;46867.44;6272877;22;20007;-77
2023/01/28 05:11:14;;;;;;;13.07;8.20;;;;;;;-145.18;100.00;46857.69;6246824;22;20424;-77
2023/01/28 05:13:40;;;;;;;17.30;8.87;;;;;;;-145.18;100.00;46867.44;6272995;22;20008;-77
2023/01/28 05:16:06;;;;;;;13.50;8.03;;;;;;;-145.18;100.00;46869.41;6273660;22;20007;-76
2023/01/28 05:18:31;;;;;;;14.47;8.60;;;;;;;-145.18;100.00;46861.59;6272600;22;20014;-77
2023/01/28 05:20:57;;;;;;;13.27;8.13;;;;;;;-145.18;100.00;46875.28;6273228;22;20011;-76
2023/01/28 05:23:22;;;;;;;12.70;7.93;;;;;;;-145.18;100.00;46879.19;6273413;22;20076;-77
2023/01/28 05:25:48;;;;;;;15.20;9.03;;;;;;;-145.18;100.00;46877.22;6273713;22;20007;-77
2023/01/28 05:28:15;;;;;;;14.67;8.47;;;;;;;-145.18;100.00;46834.25;6273043;22;20425;-77
2023/01/28 05:30:40;;;;;;;14.30;9.03;;;;;;;-145.18;100.00;46822.53;6272887;22;20004;-77
2023/01/28 05:33:06;;;;;;;13.80;8.33;;;;;;;-145.18;100.00;46808.84;6272836;22;20350;-76
2023/01/28 05:35:31;;;;;;;13.80;8.53;;;;;;;-145.18;100.00;46797.13;6272842;22;20027;-76
2023/01/28 05:37:56;;;;;;;14.57;8.57;;;;;;;-145.18;100.00;46775.66;6272939;22;20003;-76
2023/01/28 05:40:22;;;;;;;13.77;8.73;;;;;;;-145.18;100.00;46758.06;6245451;22;20015;-76
2023/01/28 05:42:47;;;;;;;13.70;8.50;;;;;;;-145.18;100.00;46769.78;6272579;22;20011;-76
2023/01/28 05:45:13;;;;;;;13.70;8.90;;;;;;;-145.18;100.00;46777.59;6272734;22;20008;-76
2023/01/28 05:47:38;;;;;;;13.20;8.47;;;;;;;-145.18;100.00;46758.06;6272664;22;20012;-76
2023/01/28 05:50:05;;;;;;;15.20;8.70;;;;;;;-145.18;100.00;46734.63;6220616;22;20007;-76
2023/01/28 05:52:31;;;;;;;14.83;8.77;;;;;;;-145.18;100.00;46730.72;6272636;22;20003;-76
2023/01/28 05:54:56;;;;;;;11.70;7.57;;;;;;;-145.18;100.00;46734.63;6245803;22;20229;-76
2023/01/28 05:57:22;;;;;;;13.73;8.57;;;;;;;-145.18;100.00;46720.94;6245512;22;20014;-76
2023/01/28 05:59:47;;;;;;;14.70;8.63;;;;;;;-145.18;100.00;46726.81;6245625;22;20310;-75
2023/01/28 06:02:12;;;;;;;12.13;7.40;;;;;;;-145.18;100.00;46750.25;6272331;22;20022;-76
2023/01/28 06:04:38;;;;;;;12.33;7.80;;;;;;;-145.18;100.00;46801.03;6245494;22;20016;-75
2023/01/28 06:07:03;;;;;;;13.67;7.80;;;;;;;-145.18;100.00;46828.38;6220249;22;20008;-75
2023/01/28 06:09:29;;;;;;;12.47;8.17;;;;;;;-145.18;100.00;46847.91;6273091;22;20049;-75
2023/01/28 06:11:54;;;;;;;14.33;8.07;;;;;;;-145.18;100.00;46892.84;6272981;22;20344;-75
2023/01/28 06:14:20;;;;;;;12.87;7.53;;;;;;;-145.18;100.00;46902.63;6272684;22;20008;-75
2023/01/28 06:16:45;;;;;;;14.10;8.77;;;;;;;-145.18;100.00;46933.88;6272747;22;20016;-75
2023/01/28 06:19:11;;;;;;;13.00;7.93;;;;;;;-145.18;100.00;46937.78;6272863;22;20012;-75
2023/01/28 06:21:36;;;;;;;13.80;7.77;;;;;;;-145.18;100.00;46941.69;6272776;22;20008;-76
2023/01/28 06:24:02;;;;;;;14.57;8.57;;;;;;;-145.18;100.00;46933.88;6272995;22;20086;-75
2023/01/28 06:26:27;;;;;;;12.97;7.57;;;;;;;-145.18;100.00;46953.41;6274115;22;19999;-75
2023/01/28 06:28:52;;;;;;;12.90;8.23;;;;;;;-145.18;100.00;46945.59;6274401;22;20079;-75
2023/01/28 06:31:18;;;;;;;14.77;8.27;;;;;;;-145.18;100.00;46971.00;6275212;22;20010;-75
2023/01/28 06:33:43;;;;;;;12.57;7.50;;;;;;;-145.18;100.00;46972.94;6274618;22;20034;-75
2023/01/28 06:36:09;;;;;;;13.13;8.33;;;;;;;-145.18;100.00;46949.50;6275023;22;20010;-75
2023/01/28 06:38:34;;;;;;;11.13;7.30;;;;;;;-145.18;100.00;46984.66;6274168;22;20078;-75
2023/01/28 06:40:59;;;;;;;14.10;8.60;;;;;;;-145.18;100.00;46990.53;6275138;22;20337;-75
2023/01/28 06:43:26;;;;;;;11.87;7.63;;;;;;;-145.18;100.00;46996.38;6270540;22;20046;-74
2023/01/28 06:45:59;;;;;;;12.93;8.03;;;;;;;-145.18;100.00;46980.75;6271230;22;20019;-75
2023/01/28 06:48:25;;;;;;;11.23;6.80;;;;;;;-145.18;100.00;47015.91;6274545;22;20320;-75
2023/01/28 06:50:51;;;;;;;14.45;8.20;;;;;;;-145.18;100.00;47029.59;6273801;22;20240;-75
2023/01/28 06:53:17;;;;;;;12.03;7.30;;;;;;;-145.18;100.00;47021.78;6273280;22;20007;-74
2023/01/28 06:55:43;;;;;;;12.43;7.63;;;;;;;-145.18;100.00;47015.91;6274404;22;20291;-75
2023/01/28 06:58:08;;;;;;;13.67;8.60;;;;;;;-145.18;100.00;47035.44;6247447;22;20012;-75
2023/01/28 07:00:34;;;;;;;13.97;8.50;;;;;;;-145.18;100.00;46996.38;6274338;22;20007;-75
2023/01/28 07:02:59;;;;;;;11.87;7.43;;;;;;;-145.18;100.00;46984.66;6266211;22;20506;-75
2023/01/28 07:05:25;;;;;;;16.27;9.23;;;;;;;-145.18;100.00;46971.00;6274530;22;20011;-75
2023/01/28 07:07:51;;;;;;;15.27;8.30;;;;;;;-145.18;100.00;46951.44;6273910;22;19999;-75
2023/01/28 07:10:17;;;;;;;13.10;8.03;;;;;;;-145.18;100.00;46957.31;6274443;22;20003;-75
2023/01/28 07:12:42;;;;;;;14.70;9.03;;;;;;;-145.18;100.00;46969.03;6273922;22;20000;-75
2023/01/28 07:15:09;;;;;;;14.33;8.70;;;;;;;-145.18;100.00;46963.19;6274242;22;20094;-75
2023/01/28 07:17:38;;;;;;;15.67;8.37;;;;;;;-145.18;100.00;46992.47;6246367;22;20474;-75
2023/01/28 07:20:05;;;;;;;14.87;8.37;;;;;;;-145.18;100.00;46972.94;6274244;22;20264;-75
2023/01/28 07:22:30;;;;;;;14.00;7.80;;;;;;;-145.18;100.00;46992.47;6274063;22;20253;-75
2023/01/28 07:24:57;;;;;;;13.50;8.37;;;;;;;-145.18;100.00;46974.91;6274211;22;20322;-75
2023/01/28 07:27:22;;;;;;;13.95;8.38;;;;;;;-145.18;100.00;46980.75;6246725;22;20395;-75
2023/01/28 07:29:48;;;;;;;13.60;8.47;;;;;;;-145.18;100.00;46965.13;6273879;22;20004;-75
2023/01/28 07:32:13;;;;;;;14.40;9.07;;;;;;;-145.18;100.00;46947.53;6274209;22;20039;-75
2023/01/28 07:34:41;;;;;;;15.13;8.97;;;;;;;-145.18;100.00;46941.69;6273632;22;20004;-75
2023/01/28 07:37:07;;;;;;;13.33;8.87;;;;;;;-145.18;100.00;46943.63;6247029;22;20115;-75
2023/01/28 07:39:33;;;;;;;13.77;8.73;;;;;;;-145.18;100.00;46961.22;6273645;22;20273;-75
2023/01/28 07:41:59;;;;;;;14.97;9.30;;;;;;;-145.18;100.00;46949.50;6274130;22;20091;-75
2023/01/28 07:44:24;;;;;;;13.93;9.07;;;;;;;-145.18;100.00;46941.69;6221655;22;20331;-75
2023/01/28 07:46:49;;;;;;;15.10;9.10;;;;;;;-145.18;100.00;46957.31;6273722;22;20008;-75
2023/01/28 07:49:15;;;;;;;13.83;8.77;;;;;;;-145.18;100.00;46951.44;6273921;22;20015;-75
2023/01/28 07:51:40;;;;;;;15.93;9.33;;;;;;;-145.18;100.00;46957.31;6273936;22;20504;-75
2023/01/28 07:54:06;;;;;;;14.27;8.63;;;;;;;-145.18;100.00;46959.25;6273781;22;20004;-75
2023/01/28 07:56:31;;;;;;;14.63;8.90;;;;;;;-145.18;100.00;46959.25;6221825;22;20632;-75
2023/01/28 07:58:56;;;;;;;13.80;8.50;;;;;;;-145.18;100.00;46943.63;6273450;22;20057;-75
2023/01/28 08:01:22;;;;;;;15.87;9.30;;;;;;;-145.18;100.00;46949.50;6273800;22;20010;-75
2023/01/28 08:03:47;;;;;;;13.00;8.77;;;;;;;-145.18;100.00;46949.50;6272903;22;20016;-75
2023/01/28 08:06:13;;;;;;;13.67;8.37;;;;;;;-145.18;100.00;46926.06;6246819;22;20095;-75
2023/01/28 08:08:38;;;;;;;13.73;8.40;;;;;;;-145.18;100.00;46928.00;6246084;22;20008;-75
2023/01/28 08:11:08;;;;;;;13.40;8.53;;;;;;;-145.18;100.00;46947.53;6274075;22;20456;-75
2023/01/28 08:13:34;;;;;;;13.50;8.37;;;;;;;-145.18;100.00;46924.09;6273288;22;20011;-75
2023/01/28 08:15:59;;;;;;;13.77;9.07;;;;;;;-145.18;100.00;46922.16;6273366;22;20217;-75
2023/01/28 08:18:25;;;;;;;13.77;8.67;;;;;;;-145.18;100.00;46896.75;6272953;22;20605;-75
2023/01/28 08:20:55;;;;;;;15.10;8.93;;;;;;;-145.18;100.00;46883.09;6273487;22;20007;-75
2023/01/28 08:23:20;;;;;;;14.77;9.37;;;;;;;-145.18;100.00;46918.25;6273343;22;20004;-75
2023/01/28 08:25:46;;;;;;;13.97;8.73;;;;;;;-145.18;100.00;46900.66;6273762;22;20263;-75
2023/01/28 08:28:13;;;;;;;13.73;9.27;;;;;;;-145.18;100.00;46890.91;6272857;22;20078;-75
2023/01/28 08:30:39;;;;;;;12.20;7.67;;;;;;;-145.18;100.00;46906.53;6273060;22;20236;-75
2023/01/28 08:33:06;;;;;;;12.77;8.23;;;;;;;-145.18;100.00;46947.53;6273284;22;20263;-75
2023/01/28 08:35:32;;;;;;;13.90;8.50;;;;;;;-145.18;100.00;46949.50;6273221;22;20222;-75
2023/01/28 08:38:00;;;;;;;17.03;8.60;;;;;;;-145.18;100.00;46959.25;6273179;22;20565;-75
2023/01/28 08:40:26;;;;;;;13.32;8.73;;;;;;;-145.18;100.00;46965.13;6273090;22;20011;-75
2023/01/28 08:42:52;;;;;;;15.93;8.93;;;;;;;-145.18;100.00;46935.81;6272774;22;20012;-75
2023/01/28 08:45:21;;;;;;;13.67;8.27;;;;;;;-145.18;100.00;46955.34;6273497;22;20261;-74
2023/01/28 08:47:55;;;;;;;16.33;9.20;;;;;;;-145.18;100.00;46974.91;6272870;22;20239;-74
2023/01/28 08:50:22;;;;;;;18.17;9.73;;;;;;;-145.18;100.00;46961.22;6273544;22;20256;-75
2023/01/28 08:52:48;;;;;;;16.77;10.80;;;;;;;-145.18;100.00;46955.34;6273022;22;20822;-75
2023/01/28 08:55:14;;;;;;;16.93;11.73;;;;;;;-145.18;100.00;46908.47;6273430;22;20229;-75
2023/01/28 08:57:40;;;;;;;17.00;10.83;;;;;;;-145.18;100.00;46912.38;6272741;22;20775;-75
2023/01/28 09:00:09;;;;;;;15.83;10.50;;;;;;;-145.18;100.00;46914.34;6273377;22;20233;-75
2023/01/28 09:02:35;;;;;;;16.17;10.10;;;;;;;-145.18;100.00;46943.63;6268515;22;20733;-75
2023/01/28 09:05:01;;;;;;;16.40;9.63;;;;;;;-145.18;100.00;46953.41;6268293;22;20681;-75
2023/01/28 09:07:26;;;;;;;15.70;9.20;;;;;;;-145.18;100.00;46929.97;6272428;22;20018;-75
2023/01/28 09:09:52;;;;;;;14.63;9.27;;;;;;;-145.18;100.00;46953.41;6272896;22;20023;-75
2023/01/28 09:12:17;;;;;;;15.77;9.30;;;;;;;-145.18;100.00;46929.97;6272776;22;20387;-75
2023/01/28 09:14:42;;;;;;;15.73;9.83;;;;;;;-145.18;100.00;46916.28;6272973;22;20035;-75
2023/01/28 09:17:08;;;;;;;15.47;9.47;;;;;;;-145.18;100.00;46885.03;6272896;22;20555;-75
2023/01/28 09:19:33;;;;;;;14.27;9.07;;;;;;;-145.18;100.00;46896.75;6244829;22;20018;-75
2023/01/28 09:21:58;;;;;;;14.73;8.73;;;;;;;-145.18;100.00;46945.59;6271990;22;20007;-75
2023/01/28 09:24:24;;;;;;;13.40;7.77;;;;;;;-145.18;100.00;46935.81;6271793;22;20038;-74
2023/01/28 09:26:50;;;;;;;16.90;9.30;;;;;;;-145.18;100.00;46939.72;6272380;22;20043;-74
2023/01/28 09:29:15;;;;;;;18.20;9.17;;;;;;;-145.18;100.00;46953.41;6245262;22;20003;-75
2023/01/28 09:31:41;;;;;;;17.83;9.50;;;;;;;-145.18;100.00;46949.50;6245554;22;20253;-75
2023/01/28 09:34:08;;;;;;;14.47;9.17;;;;;;;-145.18;100.00;46929.97;6272680;22;20004;-75
2023/01/28 09:36:34;;;;;;;19.50;9.50;;;;;;;-145.18;100.00;46924.09;6272720;22;20012;-75
2023/01/28 09:39:00;;;;;;;17.23;10.30;;;;;;;-145.18;100.00;46920.19;6272024;22;20244;-75
2023/01/28 09:41:32;;;;;;;14.90;9.90;;;;;;;-145.18;100.00;46900.66;6245378;22;20248;-75
2023/01/28 09:44:42;;;;;;;16.40;9.63;;;;;;;-145.18;100.00;46914.34;6271553;22;20456;-75
2023/01/28 09:47:32;;;;;;;15.23;9.53;;;;;;;-145.18;100.00;46929.97;6119394;23;20232;-74
2023/01/28 09:50:02;;;;;;;16.07;9.00;;;;;;;-145.18;100.00;46941.69;6272674;22;20228;-74
2023/01/28 09:52:32;;;;;;;18.23;10.53;;;;;;;-145.18;100.00;46961.22;6273029;22;20694;-73
2023/01/28 09:55:03;;;;;;;15.20;9.87;;;;;;;-145.18;100.00;46953.41;6272429;22;20224;-73
2023/01/28 09:57:44;;;;;;;16.10;10.10;;;;;;;-145.18;100.00;46959.25;6272565;22;20225;-74
2023/01/28 10:00:16;;;;;;;15.10;9.50;;;;;;;-145.18;100.00;46937.78;6272185;22;20266;-74
2023/01/28 10:03:42;;;;;;;18.57;10.73;;;;;;;-145.18;100.00;46937.78;6272158;22;20775;-74
2023/01/28 10:06:28;;;;;;;15.07;9.90;;;;;;;-145.18;100.00;46918.25;6140004;22;20275;-73
2023/01/28 10:09:31;;;;;;;15.50;9.48;;;;;;;-145.18;100.00;46926.06;6209757;22;20233;-74
2023/01/28 10:11:56;;;;;;;16.90;10.30;;;;;;;-145.18;100.00;46945.59;6272312;22;20003;-74
2023/01/28 10:14:35;;;;;;;18.27;10.93;;;;;;;-145.18;100.00;46929.97;6272463;22;20228;-74
2023/01/28 10:17:15;;;;;;;16.50;10.00;;;;;;;-145.18;100.00;46996.38;6272837;22;20003;-74
2023/01/28 10:19:48;;;;;;;15.60;10.10;;;;;;;-145.18;100.00;47027.63;6271667;22;20917;-74
2023/01/28 10:22:17;;;;;;;17.53;10.27;;;;;;;-145.18;100.00;47086.25;6272149;22;20241;-73
2023/01/28 10:24:57;;;;;;;16.80;10.67;;;;;;;-145.18;100.00;47113.59;6272056;22;20225;-74
2023/01/28 10:27:27;;;;;;;17.63;10.23;;;;;;;-145.18;100.00;47062.81;6272323;22;20229;-73
2023/01/28 10:29:52;;;;;;;17.10;11.30;;;;;;;-145.18;100.00;47045.22;6272033;22;20225;-74
2023/01/28 10:32:29;;;;;;;18.40;12.07;;;;;;;-145.18;100.00;47012.00;6271919;22;20237;-74
2023/01/28 10:34:58;;;;;;;18.70;10.80;;;;;;;-145.18;100.00;47066.72;6271861;22;20004;-74
2023/01/28 10:37:24;;;;;;;16.90;11.20;;;;;;;-145.18;100.00;47082.34;6272385;22;20431;-74
2023/01/28 10:39:55;;;;;;;17.73;10.17;;;;;;;-145.18;100.00;47092.09;6245108;22;20241;-74
2023/01/28 10:42:28;;;;;;;17.43;10.83;;;;;;;-145.18;100.00;47154.63;6245746;22;20330;-74
2023/01/28 10:45:20;;;;;;;16.23;10.10;;;;;;;-145.18;100.00;47189.78;6271953;22;20286;-74
2023/01/28 10:47:57;;;;;;;23.13;9.47;;;;;;;-145.18;100.00;47365.63;6270914;22;20233;-74
2023/01/28 10:50:26;;;;;;;14.23;7.67;;;;;;;-145.18;100.00;47633.28;6272810;22;20221;-74
2023/01/28 10:53:04;;;;;;;14.70;7.77;;;;;;;-145.18;100.00;47664.53;6272482;22;20248;-74
2023/01/28 10:55:53;;;;;;;15.43;11.23;;;;;;;-145.18;100.00;47738.78;6271982;22;20354;-75
2023/01/28 10:58:22;;;;;;;15.07;8.90;;;;;;;-145.18;100.00;47783.72;6272095;22;20252;-74
2023/01/28 11:00:56;;;;;;;14.90;8.47;;;;;;;-145.18;100.00;47785.69;6271993;22;20228;-74
2023/01/28 11:03:33;;;;;;;12.73;7.47;;;;;;;-145.18;100.00;47799.34;6271914;22;20705;-74
2023/01/28 11:05:59;;;;;;;11.93;8.10;;;;;;;-145.18;100.00;47815.00;6245379;22;20257;-74
2023/01/28 11:08:28;;;;;;;13.23;7.73;;;;;;;-145.18;100.00;47797.41;6271632;22;20290;-74
2023/01/28 11:10:55;;;;;;;12.57;8.13;;;;;;;-145.18;100.00;47770.03;6272286;22;20078;-74
2023/01/28 11:13:26;;;;;;;11.57;7.97;;;;;;;-145.18;100.00;47770.03;6273856;22;20232;-74
2023/01/28 11:16:12;;;;;;;13.60;7.20;;;;;;;-145.18;100.00;47742.69;6274197;22;20229;-75
2023/01/28 11:18:45;;;;;;;16.38;9.45;;;;;;;-145.18;100.00;47764.19;6246560;22;20689;-75
2023/01/28 11:21:28;;;;;;;10.57;7.17;;;;;;;-145.18;100.00;47729.00;6274194;22;20014;-75
2023/01/28 11:24:01;;;;;;;15.30;7.20;;;;;;;-145.18;100.00;47691.91;6273731;22;20275;-75
2023/01/28 11:26:34;;;;;;;12.67;8.20;;;;;;;-145.18;100.00;47717.28;6274568;22;20221;-75
2023/01/28 11:28:59;;;;;;;12.80;7.97;;;;;;;-145.18;100.00;47691.91;6274168;22;20593;-75
2023/01/28 11:31:26;;;;;;;11.07;7.67;;;;;;;-145.18;100.00;47674.31;6274029;22;20245;-75
2023/01/28 11:33:56;;;;;;;11.83;7.07;;;;;;;-145.18;100.00;47687.97;6273899;22;20004;-75
2023/01/28 11:36:27;;;;;;;10.20;6.33;;;;;;;-145.18;100.00;47674.31;6274476;22;20704;-75